createdAt,value
2018-12-11T00:00:20.537Z,3.40
2018-12-11T00:02:48.194Z,3.30
2018-12-11T00:05:16.067Z,3.20
2018-12-11T00:07:43.594Z,3.10
2018-12-11T00:10:11.116Z,3.10
2018-12-11T00:12:38.650Z,2.90
2018-12-11T00:15:06.222Z,2.70
2018-12-11T00:17:33.754Z,2.60
2018-12-11T00:20:01.272Z,2.50
2018-12-11T00:22:28.794Z,2.40
2018-12-11T00:24:56.362Z,2.40
2018-12-11T00:27:23.867Z,2.40
2018-12-11T00:29:51.393Z,2.40
2018-12-11T00:32:18.938Z,2.50
2018-12-11T00:34:46.460Z,2.50
2018-12-11T00:37:13.972Z,2.50
2018-12-11T00:39:41.546Z,2.40
2018-12-11T00:42:09.130Z,2.30
2018-12-11T00:44:36.647Z,2.30
2018-12-11T00:47:04.214Z,2.30
2018-12-11T00:49:31.774Z,2.20
2018-12-11T00:51:59.313Z,2.30
2018-12-11T00:54:26.814Z,2.30
2018-12-11T00:56:54.337Z,2.40
2018-12-11T00:59:21.848Z,2.40
2018-12-11T01:01:49.366Z,2.40
2018-12-11T01:04:16.881Z,2.50
2018-12-11T01:06:44.410Z,2.50
2018-12-11T01:09:11.914Z,2.40
2018-12-11T01:11:39.428Z,2.40
2018-12-11T01:14:06.943Z,2.40
2018-12-11T01:16:34.447Z,2.50
2018-12-11T01:19:01.956Z,2.50
2018-12-11T01:21:29.513Z,2.60
2018-12-11T01:23:57.023Z,2.60
2018-12-11T01:26:24.523Z,2.60
2018-12-11T01:28:52.039Z,2.60
2018-12-11T01:31:19.547Z,2.80
2018-12-11T01:33:47.066Z,2.90
2018-12-11T01:36:14.695Z,2.90
2018-12-11T01:38:42.213Z,3.00
2018-12-11T01:41:09.715Z,3.00
2018-12-11T01:43:37.253Z,3.00
2018-12-11T01:46:04.764Z,3.00
2018-12-11T01:48:32.293Z,3.00
2018-12-11T01:50:59.869Z,3.00
2018-12-11T01:53:27.417Z,3.00
2018-12-11T01:55:54.927Z,3.00
2018-12-11T01:58:22.458Z,3.00
2018-12-11T02:00:49.973Z,3.00
2018-12-11T02:03:17.473Z,3.00
2018-12-11T02:05:45.008Z,3.00
2018-12-11T02:08:12.523Z,3.00
2018-12-11T02:10:40.102Z,3.00
2018-12-11T02:13:07.626Z,3.00
2018-12-11T02:15:35.244Z,3.10
2018-12-11T02:18:02.906Z,3.10
2018-12-11T02:20:30.430Z,3.10
2018-12-11T02:22:57.944Z,3.10
2018-12-11T02:25:25.459Z,3.10
2018-12-11T02:27:53.229Z,3.10
2018-12-11T02:30:20.780Z,3.10
2018-12-11T02:32:48.302Z,3.10
2018-12-11T02:35:15.813Z,3.10
2018-12-11T02:37:43.339Z,3.10
2018-12-11T02:40:10.852Z,3.10
2018-12-11T02:42:38.372Z,3.10
2018-12-11T02:45:05.960Z,3.10
2018-12-11T02:47:33.487Z,3.10
2018-12-11T02:50:01.016Z,3.10
2018-12-11T02:52:28.527Z,3.10
2018-12-11T02:54:56.049Z,3.00
2018-12-11T02:57:23.558Z,3.00
2018-12-11T02:59:51.096Z,2.90
2018-12-11T03:02:18.617Z,2.90
2018-12-11T03:04:46.123Z,2.90
2018-12-11T03:07:13.727Z,2.90
2018-12-11T03:09:41.327Z,2.90
2018-12-11T03:12:08.836Z,2.90
2018-12-11T03:14:36.352Z,2.90
2018-12-11T03:17:03.912Z,2.90
2018-12-11T03:19:31.420Z,2.90
2018-12-11T03:21:59.027Z,2.90
2018-12-11T03:24:26.542Z,2.90
2018-12-11T03:26:54.057Z,2.80
2018-12-11T03:29:21.564Z,2.70
2018-12-11T03:31:49.092Z,2.60
2018-12-11T03:34:16.611Z,2.50
2018-12-11T03:36:44.118Z,2.50
2018-12-11T03:39:11.662Z,2.40
2018-12-11T03:41:39.189Z,2.50
2018-12-11T03:44:06.698Z,2.60
2018-12-11T03:46:34.216Z,2.60
2018-12-11T03:49:01.736Z,2.70
2018-12-11T03:51:29.245Z,2.70
2018-12-11T03:53:56.751Z,2.60
2018-12-11T04:03:08.044Z,2.60
2018-12-11T04:05:35.589Z,2.60
2018-12-11T04:08:03.422Z,2.60
2018-12-11T04:10:30.983Z,2.60
2018-12-11T04:12:58.565Z,2.60
2018-12-11T04:15:26.081Z,2.70
2018-12-11T04:17:53.690Z,2.70
2018-12-11T04:20:21.307Z,2.70
2018-12-11T04:22:48.817Z,2.70
2018-12-11T04:25:16.315Z,2.70
2018-12-11T04:27:43.857Z,2.60
2018-12-11T04:30:11.554Z,2.60
2018-12-11T04:32:39.083Z,2.60
2018-12-11T04:35:06.623Z,2.60
2018-12-11T04:37:34.147Z,2.60
2018-12-11T04:40:01.672Z,2.60
2018-12-11T04:42:29.208Z,2.60
2018-12-11T04:44:57.723Z,2.70
2018-12-11T04:47:25.275Z,2.60
2018-12-11T04:49:52.793Z,2.60
2018-12-11T04:52:20.312Z,2.50
2018-12-11T04:54:47.813Z,2.60
2018-12-11T04:57:15.318Z,2.50
2018-12-11T04:59:42.832Z,2.50
2018-12-11T05:02:10.348Z,2.50
2018-12-11T05:04:37.853Z,2.50
2018-12-11T05:07:05.368Z,2.60
2018-12-11T05:09:32.878Z,2.60
2018-12-11T05:12:00.404Z,2.60
2018-12-11T05:14:27.927Z,2.50
2018-12-11T05:16:55.440Z,2.50
2018-12-11T05:19:22.951Z,2.50
2018-12-11T05:21:50.469Z,2.40
2018-12-11T05:24:18.111Z,2.50
2018-12-11T05:26:45.634Z,2.50
2018-12-11T05:29:13.209Z,2.50
2018-12-11T05:31:40.723Z,2.60
2018-12-11T05:34:08.236Z,2.60
2018-12-11T05:36:35.834Z,2.70
2018-12-11T05:39:05.114Z,2.70
2018-12-11T05:41:32.627Z,2.80
2018-12-11T05:44:00.164Z,2.80
2018-12-11T05:46:27.685Z,2.80
2018-12-11T05:48:55.194Z,2.80
2018-12-11T05:51:22.714Z,2.80
2018-12-11T05:53:50.221Z,2.80
2018-12-11T05:56:17.733Z,2.80
2018-12-11T05:58:45.254Z,2.80
2018-12-11T06:01:12.753Z,2.80
2018-12-11T06:03:40.277Z,2.80
2018-12-11T06:06:07.847Z,2.80
2018-12-11T06:08:35.369Z,2.80
2018-12-11T06:11:02.887Z,2.70
2018-12-11T06:13:30.421Z,2.70
2018-12-11T06:15:57.929Z,2.60
2018-12-11T06:18:25.433Z,2.60
2018-12-11T06:20:52.966Z,2.60
2018-12-11T06:23:20.491Z,2.60
2018-12-11T06:25:48.007Z,2.60
2018-12-11T06:28:15.515Z,2.60
2018-12-11T06:30:43.045Z,2.60
2018-12-11T06:33:10.549Z,2.70
2018-12-11T06:35:38.065Z,2.80
2018-12-11T06:38:05.618Z,2.90
2018-12-11T06:40:33.116Z,2.90
2018-12-11T06:43:00.651Z,2.90
2018-12-11T06:45:28.165Z,2.90
2018-12-11T06:47:55.690Z,2.90
2018-12-11T06:50:23.281Z,2.80
2018-12-11T06:52:50.819Z,2.80
2018-12-11T06:55:18.344Z,2.70
2018-12-11T06:57:45.862Z,2.60
2018-12-11T07:00:13.385Z,2.60
2018-12-11T07:02:40.911Z,2.50
2018-12-11T07:05:08.547Z,2.50
2018-12-11T07:07:36.107Z,2.50
2018-12-11T07:10:05.258Z,2.40
2018-12-11T07:12:32.863Z,2.30
2018-12-11T07:15:00.405Z,2.20
2018-12-11T07:17:27.935Z,2.30
2018-12-11T07:19:55.457Z,2.30
2018-12-11T07:22:22.981Z,2.40
2018-12-11T07:24:50.553Z,2.50
2018-12-11T07:27:18.073Z,2.70
2018-12-11T07:29:45.583Z,2.80
2018-12-11T07:32:13.135Z,2.90
2018-12-11T07:34:40.647Z,3.00
2018-12-11T07:37:08.155Z,3.10
2018-12-11T07:39:35.691Z,3.10
2018-12-11T07:42:03.353Z,3.10
2018-12-11T07:44:30.867Z,3.20
2018-12-11T07:46:58.403Z,3.20
2018-12-11T07:49:25.978Z,3.20
2018-12-11T07:51:53.507Z,3.20
2018-12-11T07:54:21.013Z,3.30
2018-12-11T07:56:48.526Z,3.30
2018-12-11T07:59:16.026Z,3.40
2018-12-11T08:01:43.550Z,3.30
2018-12-11T08:04:11.095Z,3.30
2018-12-11T08:06:38.618Z,3.30
2018-12-11T08:09:06.463Z,3.20
2018-12-11T08:11:34.057Z,3.20
2018-12-11T08:14:01.717Z,3.20
2018-12-11T08:16:29.517Z,3.20
2018-12-11T08:18:57.303Z,3.20
2018-12-11T08:21:24.832Z,3.30
2018-12-11T08:23:52.347Z,3.30
2018-12-11T08:26:19.859Z,3.30
2018-12-11T08:28:47.381Z,3.30
2018-12-11T08:31:14.981Z,3.30
2018-12-11T08:33:42.490Z,3.40
2018-12-11T08:36:10.035Z,3.40
2018-12-11T08:38:37.563Z,3.40
2018-12-11T08:41:05.090Z,3.40
2018-12-11T08:43:32.616Z,3.50
2018-12-11T08:46:00.266Z,3.60
2018-12-11T08:48:27.818Z,3.60
2018-12-11T08:50:55.340Z,3.60
2018-12-11T08:53:22.861Z,3.60
2018-12-11T08:55:50.383Z,3.70
2018-12-11T08:58:17.928Z,3.70
2018-12-11T09:00:45.570Z,3.90
2018-12-11T09:03:13.171Z,3.90
2018-12-11T09:05:40.687Z,3.90
2018-12-11T09:08:08.227Z,3.90
2018-12-11T09:10:35.757Z,3.90
2018-12-11T09:13:03.421Z,3.90
2018-12-11T09:15:30.959Z,4.00
2018-12-11T09:17:58.511Z,4.00
2018-12-11T09:20:26.043Z,4.10
2018-12-11T09:22:53.629Z,4.10
2018-12-11T09:25:21.153Z,4.10
2018-12-11T09:27:48.665Z,4.10
2018-12-11T09:30:16.190Z,4.20
2018-12-11T09:32:43.707Z,4.30
2018-12-11T09:35:11.224Z,4.40
2018-12-11T09:37:38.798Z,4.40
2018-12-11T09:40:06.324Z,4.60
2018-12-11T09:42:33.842Z,4.70
2018-12-11T09:45:01.366Z,4.80
2018-12-11T09:47:28.890Z,4.80
2018-12-11T09:49:56.401Z,4.90
2018-12-11T09:52:24.179Z,5.00
2018-12-11T09:54:51.699Z,5.10
2018-12-11T09:57:19.216Z,5.10
2018-12-11T09:59:46.738Z,5.20
2018-12-11T10:02:14.354Z,5.20
2018-12-11T10:04:41.864Z,5.20
2018-12-11T10:07:09.500Z,5.20
2018-12-11T10:09:37.258Z,5.30
2018-12-11T10:12:04.875Z,5.40
2018-12-11T10:14:32.398Z,5.40
2018-12-11T10:17:00.111Z,5.50
2018-12-11T10:19:27.653Z,5.50
2018-12-11T10:21:55.175Z,5.60
2018-12-11T10:24:24.562Z,5.70
2018-12-11T10:26:52.149Z,5.80
2018-12-11T10:29:19.799Z,5.90
2018-12-11T10:31:47.324Z,5.90
2018-12-11T10:34:14.849Z,6.00
2018-12-11T10:36:42.367Z,6.00
2018-12-11T10:39:09.889Z,6.10
2018-12-11T10:41:37.423Z,6.10
2018-12-11T10:44:04.938Z,6.20
2018-12-11T10:46:33.903Z,6.30
2018-12-11T10:49:01.780Z,6.30
2018-12-11T10:51:29.406Z,6.40
2018-12-11T10:53:57.017Z,6.40
2018-12-11T10:56:24.529Z,6.50
2018-12-11T10:58:52.165Z,6.50
2018-12-11T11:01:21.665Z,6.50
2018-12-11T11:03:49.317Z,6.40
2018-12-11T11:06:16.833Z,6.40
2018-12-11T11:08:44.355Z,6.30
2018-12-11T11:11:11.872Z,6.30
2018-12-11T11:13:39.446Z,6.40
2018-12-11T11:16:08.938Z,6.40
2018-12-11T11:18:36.468Z,6.40
2018-12-11T11:21:03.988Z,6.50
2018-12-11T11:23:31.510Z,6.50
2018-12-11T11:25:59.174Z,6.50
2018-12-11T11:28:26.686Z,6.50
2018-12-11T11:30:54.193Z,6.50
2018-12-11T11:33:21.734Z,6.60
2018-12-11T11:35:49.252Z,6.50
2018-12-11T11:38:16.781Z,6.60
2018-12-11T11:40:44.416Z,6.70
2018-12-11T11:43:11.964Z,6.80
2018-12-11T11:45:39.517Z,6.90
2018-12-11T11:48:08.328Z,6.90
2018-12-11T11:50:36.577Z,6.90
2018-12-11T11:53:04.087Z,6.90
2018-12-11T11:55:31.595Z,6.90
2018-12-11T11:57:59.125Z,7.00
2018-12-11T12:00:26.635Z,7.00
2018-12-11T12:02:54.133Z,7.00
2018-12-11T12:05:21.691Z,7.10
2018-12-11T12:07:49.209Z,7.20
2018-12-11T12:10:16.714Z,7.30
2018-12-11T12:12:44.262Z,7.40
2018-12-11T12:15:11.791Z,7.60
2018-12-11T12:17:39.325Z,7.70
2018-12-11T12:20:08.081Z,7.80
2018-12-11T12:22:35.612Z,7.80
2018-12-11T12:25:03.666Z,7.80
2018-12-11T12:27:32.542Z,7.90
2018-12-11T12:30:00.064Z,7.90
2018-12-11T12:32:27.574Z,7.90
2018-12-11T12:34:55.083Z,7.90
2018-12-11T12:37:22.594Z,7.90
2018-12-11T12:39:50.113Z,8.00
2018-12-11T12:42:17.642Z,8.00
2018-12-11T12:44:45.172Z,8.00
2018-12-11T12:47:12.809Z,8.10
2018-12-11T12:49:40.318Z,8.10
2018-12-11T12:52:07.829Z,8.20
2018-12-11T12:54:35.351Z,8.40
2018-12-11T12:57:02.862Z,8.40
2018-12-11T12:59:30.367Z,8.50
2018-12-11T13:01:57.937Z,8.60
2018-12-11T13:04:25.525Z,8.60
2018-12-11T13:06:53.366Z,8.60
2018-12-11T13:09:20.902Z,8.70
2018-12-11T13:11:48.437Z,8.70
2018-12-11T13:14:15.963Z,8.70
2018-12-11T13:16:43.508Z,8.70
2018-12-11T13:19:11.119Z,8.80
2018-12-11T13:21:38.631Z,8.80
2018-12-11T13:24:06.144Z,8.80
2018-12-11T13:26:33.712Z,8.80
2018-12-11T13:29:01.299Z,8.80
2018-12-11T13:31:28.866Z,8.70
2018-12-11T13:33:56.374Z,8.60
2018-12-11T13:36:23.960Z,8.50
2018-12-11T13:38:51.605Z,8.50
2018-12-11T13:41:19.119Z,8.50
2018-12-11T13:43:47.236Z,8.60
2018-12-11T13:46:14.738Z,8.60
2018-12-11T13:48:42.854Z,8.70
2018-12-11T13:51:10.531Z,8.80
2018-12-11T13:53:38.045Z,8.80
2018-12-11T13:56:05.546Z,8.90
2018-12-11T13:58:33.137Z,8.90
2018-12-11T14:01:00.639Z,8.90
2018-12-11T14:03:28.163Z,9.00
2018-12-11T14:05:55.752Z,9.00
2018-12-11T14:08:23.268Z,9.00
2018-12-11T14:10:50.777Z,9.00
2018-12-11T14:13:18.494Z,9.00
2018-12-11T14:15:46.353Z,9.00
2018-12-11T14:18:13.867Z,8.90
2018-12-11T14:20:41.384Z,8.90
2018-12-11T14:23:08.899Z,8.80
2018-12-11T14:25:36.429Z,8.80
2018-12-11T14:28:04.059Z,8.70
2018-12-11T14:30:31.606Z,8.70
2018-12-11T14:32:59.145Z,8.70
2018-12-11T14:35:26.647Z,8.70
2018-12-11T14:37:54.150Z,8.60
2018-12-11T14:40:21.662Z,8.60
2018-12-11T14:42:49.184Z,8.50
2018-12-11T14:45:16.689Z,8.50
2018-12-11T14:47:44.203Z,8.50
2018-12-11T14:50:11.721Z,8.50
2018-12-11T14:52:39.228Z,8.50
2018-12-11T14:55:06.734Z,8.50
2018-12-11T14:57:34.232Z,8.50
2018-12-11T15:00:01.743Z,8.50
2018-12-11T15:02:29.606Z,8.50
2018-12-11T15:04:57.655Z,8.40
2018-12-11T15:07:25.241Z,8.50
2018-12-11T15:09:52.749Z,8.50
2018-12-11T15:12:20.351Z,8.60
2018-12-11T15:14:47.865Z,8.70
2018-12-11T15:17:15.382Z,8.90
2018-12-11T15:19:42.895Z,9.10
2018-12-11T15:22:10.649Z,9.20
2018-12-11T15:24:38.160Z,9.20
2018-12-11T15:27:05.664Z,9.10
2018-12-11T15:29:33.163Z,9.00
2018-12-11T15:32:00.727Z,8.90
2018-12-11T15:34:28.325Z,8.80
2018-12-11T15:36:55.830Z,8.70
2018-12-11T15:39:23.346Z,8.50
2018-12-11T15:41:50.860Z,8.40
2018-12-11T15:44:18.362Z,8.40
2018-12-11T15:46:46.167Z,8.20
2018-12-11T15:49:13.704Z,8.20
2018-12-11T15:51:41.597Z,8.10
2018-12-11T15:54:09.187Z,8.00
2018-12-11T15:56:36.729Z,7.80
2018-12-11T15:59:07.748Z,7.70
2018-12-11T16:01:35.737Z,7.50
2018-12-11T16:04:03.672Z,7.40
2018-12-11T16:06:31.706Z,7.20
2018-12-11T16:08:59.217Z,7.20
2018-12-11T16:11:26.752Z,7.20
2018-12-11T16:13:54.567Z,7.10
2018-12-11T16:16:22.774Z,7.00
2018-12-11T16:18:50.984Z,7.00
2018-12-11T16:21:18.714Z,6.90
2018-12-11T16:23:46.308Z,6.90
2018-12-11T16:26:13.816Z,6.90
2018-12-11T16:28:41.424Z,7.00
2018-12-11T16:31:09.250Z,6.90
2018-12-11T16:33:37.019Z,7.00
2018-12-11T16:36:05.052Z,7.00
2018-12-11T16:38:32.702Z,7.00
2018-12-11T16:41:00.631Z,7.00
2018-12-11T16:43:28.402Z,7.00
2018-12-11T16:45:56.044Z,7.00
2018-12-11T16:48:23.946Z,7.00
2018-12-11T16:50:52.004Z,7.00
2018-12-11T16:53:19.780Z,7.00
2018-12-11T16:55:47.291Z,6.90
2018-12-11T16:58:14.808Z,7.00
2018-12-11T17:00:42.326Z,7.00
2018-12-11T17:03:09.865Z,7.00
2018-12-11T17:05:37.374Z,7.10
2018-12-11T17:08:05.008Z,7.10
2018-12-11T17:10:32.513Z,7.10
2018-12-11T17:13:00.129Z,7.10
2018-12-11T17:15:28.021Z,7.10
2018-12-11T17:17:55.531Z,7.20
2018-12-11T17:20:23.084Z,7.20
2018-12-11T17:22:50.607Z,7.30
2018-12-11T17:25:18.134Z,7.20
2018-12-11T17:27:45.675Z,7.20
2018-12-11T17:30:13.185Z,7.10
2018-12-11T17:32:40.698Z,7.00
2018-12-11T17:35:08.212Z,7.00
2018-12-11T17:37:35.722Z,6.90
2018-12-11T17:40:04.240Z,6.90
2018-12-11T17:42:31.763Z,6.90
2018-12-11T17:44:59.280Z,6.90
2018-12-11T17:47:26.791Z,6.90
2018-12-11T17:49:54.309Z,6.90
2018-12-11T17:52:21.822Z,6.90
2018-12-11T17:54:49.342Z,7.00
2018-12-11T17:57:16.844Z,7.00
2018-12-11T17:59:44.353Z,7.00
2018-12-11T18:02:13.894Z,6.90
2018-12-11T18:04:41.406Z,7.00
2018-12-11T18:07:08.918Z,6.90
2018-12-11T18:09:36.424Z,6.90
2018-12-11T18:12:03.940Z,6.90
2018-12-11T18:14:31.457Z,6.90
2018-12-11T18:16:58.981Z,6.90
2018-12-11T18:19:26.952Z,7.00
2018-12-11T18:21:54.486Z,6.90
2018-12-11T18:24:21.999Z,6.90
2018-12-11T18:26:49.590Z,6.90
2018-12-11T18:29:17.094Z,6.90
2018-12-11T18:31:44.587Z,6.90
2018-12-11T18:34:12.399Z,6.80
2018-12-11T18:36:40.007Z,6.80
2018-12-11T18:39:07.505Z,6.80
2018-12-11T18:41:35.037Z,6.80
2018-12-11T18:44:02.551Z,6.70
2018-12-11T18:46:30.067Z,6.70
2018-12-11T18:48:57.566Z,6.70
2018-12-11T18:51:25.079Z,6.70
2018-12-11T18:53:52.588Z,6.70
2018-12-11T18:56:20.111Z,6.70
2018-12-11T18:58:47.615Z,6.70
2018-12-11T19:01:15.555Z,6.70
2018-12-11T19:03:49.101Z,6.70
2018-12-11T19:06:12.877Z,6.70
2018-12-11T19:08:40.594Z,6.60
2018-12-11T19:11:08.110Z,6.50
2018-12-11T19:13:35.615Z,6.50
2018-12-11T19:16:03.258Z,6.40
2018-12-11T19:18:31.083Z,6.40
2018-12-11T19:20:58.666Z,6.40
2018-12-11T19:23:27.623Z,6.40
2018-12-11T19:25:55.141Z,6.40
2018-12-11T19:28:22.655Z,6.40
2018-12-11T19:30:50.163Z,6.40
2018-12-11T19:33:17.698Z,6.40
2018-12-11T19:35:45.215Z,6.30
2018-12-11T19:38:12.850Z,6.30
2018-12-11T19:40:40.973Z,6.30
2018-12-11T19:43:09.898Z,6.30
2018-12-11T19:45:37.390Z,6.30
2018-12-11T19:48:05.442Z,6.30
2018-12-11T19:50:32.956Z,6.30
2018-12-11T19:53:00.450Z,6.30
2018-12-11T19:55:28.083Z,6.40
2018-12-11T19:57:59.600Z,6.40
2018-12-11T20:00:25.283Z,6.40
2018-12-11T20:02:52.888Z,6.30
2018-12-11T20:05:20.414Z,6.30
2018-12-11T20:07:48.288Z,6.30
2018-12-11T20:10:16.246Z,6.30
2018-12-11T20:12:44.244Z,6.30
2018-12-11T20:15:11.750Z,6.40
2018-12-11T20:17:39.266Z,6.50
2018-12-11T20:20:07.145Z,6.50
2018-12-11T20:22:34.847Z,6.40
2018-12-11T20:25:02.363Z,6.40
2018-12-11T20:27:29.892Z,6.40
2018-12-11T20:29:57.431Z,6.40
2018-12-11T20:32:24.939Z,6.30
2018-12-11T20:34:52.437Z,6.30
2018-12-11T20:37:19.948Z,6.30
2018-12-11T20:39:47.526Z,6.30
2018-12-11T20:42:15.050Z,6.30
2018-12-11T20:44:42.560Z,6.30
2018-12-11T20:47:10.087Z,6.30
2018-12-11T20:49:37.589Z,6.30
2018-12-11T20:52:05.301Z,6.20
2018-12-11T20:54:33.715Z,6.20
2018-12-11T20:57:01.453Z,6.20
2018-12-11T20:59:28.969Z,6.20
2018-12-11T21:01:56.496Z,6.20
2018-12-11T21:04:24.009Z,6.20
2018-12-11T21:06:51.540Z,6.10
2018-12-11T21:09:19.164Z,6.10
2018-12-11T21:11:46.669Z,6.10
2018-12-11T21:14:14.283Z,6.10
2018-12-11T21:16:41.801Z,6.10
2018-12-11T21:19:09.381Z,6.00
2018-12-11T21:21:38.121Z,5.90
2018-12-11T21:24:06.016Z,5.90
2018-12-11T21:26:33.529Z,5.90
2018-12-11T21:29:01.050Z,5.90
2018-12-11T21:31:28.577Z,6.00
2018-12-11T21:33:56.111Z,6.00
2018-12-11T21:36:23.841Z,6.10
2018-12-11T21:38:51.364Z,6.10
2018-12-11T21:41:18.892Z,6.10
2018-12-11T21:43:46.417Z,6.10
2018-12-11T21:46:13.927Z,6.10
2018-12-11T21:48:41.725Z,6.10
2018-12-11T21:51:09.233Z,6.10
2018-12-11T21:53:36.740Z,6.10
2018-12-11T21:56:04.379Z,6.10
2018-12-11T21:58:31.979Z,6.10
2018-12-11T22:00:59.597Z,6.10
2018-12-11T22:03:27.402Z,6.10
2018-12-11T22:05:55.275Z,6.00
2018-12-11T22:08:23.181Z,6.00
2018-12-11T22:10:50.700Z,6.00
2018-12-11T22:13:18.214Z,6.00
2018-12-11T22:15:45.723Z,6.00
2018-12-11T22:18:13.254Z,6.10
2018-12-11T22:20:40.788Z,6.00
2018-12-11T22:23:08.300Z,6.00
2018-12-11T22:25:35.812Z,6.00
2018-12-11T22:28:03.324Z,6.00
2018-12-11T22:30:30.913Z,6.00
2018-12-11T22:32:58.434Z,6.00
2018-12-11T22:35:25.968Z,6.00
2018-12-11T22:37:53.573Z,5.90
2018-12-11T22:40:21.148Z,5.90
2018-12-11T22:42:48.674Z,5.90
2018-12-11T22:45:16.213Z,5.90
2018-12-11T22:47:43.733Z,5.90
2018-12-11T22:50:11.261Z,5.90
2018-12-11T22:52:38.887Z,5.90
2018-12-11T22:55:06.442Z,5.90
2018-12-11T22:57:34.055Z,5.90
2018-12-11T23:00:01.587Z,5.80
2018-12-11T23:02:29.169Z,5.80
2018-12-11T23:04:56.709Z,5.80
2018-12-11T23:07:24.260Z,5.70
2018-12-11T23:09:51.790Z,5.70
2018-12-11T23:12:19.326Z,5.70
2018-12-11T23:14:46.844Z,5.70
2018-12-11T23:17:14.361Z,5.80
2018-12-11T23:19:41.883Z,5.80
2018-12-11T23:22:09.405Z,5.80
2018-12-11T23:24:37.001Z,5.80
2018-12-11T23:27:05.016Z,5.80
2018-12-11T23:29:32.537Z,5.80
2018-12-11T23:32:00.125Z,5.80
2018-12-11T23:34:27.636Z,5.80
2018-12-11T23:36:55.160Z,5.70
2018-12-11T23:39:22.683Z,5.80
2018-12-11T23:41:50.199Z,5.70
2018-12-11T23:44:17.791Z,5.70
2018-12-11T23:46:45.308Z,5.70
2018-12-11T23:49:12.831Z,5.60
2018-12-11T23:51:40.342Z,5.50
2018-12-11T23:54:07.860Z,5.60
2018-12-11T23:56:35.395Z,5.60
2018-12-11T23:59:03.085Z,5.60
